Time,TemperatureF,DewpointF,PressureIn,WindDirection,WindDirectionDegrees,WindSpeedMPH,WindSpeedGustMPH,Humidity,HourlyPrecipIn,Conditions,Clouds,dailyrainin,SoftwareType,DateUTC
2013-01-25 00:03:00,18.9,10.7,30.12,SW,222,0.3,2.2,70,0.00,CLR,,0.00,WeatherDisplay:10.37,2013-01-25 06:03:00,
2013-01-25 00:08:00,18.8,10.6,30.12,SW,222,1.9,2.3,70,0.00,CLR,,0.00,WeatherDisplay:10.37,2013-01-25 06:08:00,
2013-01-25 00:13:00,18.8,10.6,30.11,SW,222,2.8,4.6,70,0.00,CLR,,0.00,WeatherDisplay:10.37,2013-01-25 06:13:00,
2013-01-25 00:18:00,18.8,10.9,30.12,SW,221,2.4,3.2,71,0.00,CLR,,0.00,WeatherDisplay:10.37,2013-01-25 06:18:00,
2013-01-25 00:23:00,18.8,10.6,30.11,SW,222,2.2,3.5,70,0.00,CLR,,0.00,WeatherDisplay:10.37,2013-01-25 06:23:00,
2013-01-25 00:28:00,18.9,10.7,30.11,SW,221,3.4,4.6,70,0.00,CLR,,0.00,WeatherDisplay:10.37,2013-01-25 06:28:00,
2013-01-25 00:33:00,19.0,10.8,30.12,SW,221,1.7,3.5,70,0.00,CLR,,0.00,WeatherDisplay:10.37,2013-01-25 06:33:00,
2013-01-25 00:38:00,19.0,10.5,30.11,SW,221,3.1,4.6,69,0.00,CLR,,0.00,WeatherDisplay:10.37,2013-01-25 06:38:00,
2013-01-25 00:43:00,18.9,10.4,30.12,SW,222,3.4,4.6,69,0.00,CLR,,0.00,WeatherDisplay:10.37,2013-01-25 06:43:00,
2013-01-25 00:48:00,18.9,10.7,30.11,SW,221,3.4,4.6,70,0.00,CLR,,0.00,WeatherDisplay:10.37,2013-01-25 06:48:00,
2013-01-25 00:53:00,18.8,10.6,30.12,SW,222,1.4,3.5,70,0.00,CLR,,0.00,WeatherDisplay:10.37,2013-01-25 06:53:00,
2013-01-25 00:58:00,18.7,10.5,30.12,SW,221,1.5,2.3,70,0.00,CLR,,0.00,WeatherDisplay:10.37,2013-01-25 06:58:00,
2013-01-25 01:03:00,18.4,10.2,30.12,SW,222,1.3,2.3,70,0.00,CLR,,0.00,WeatherDisplay:10.37,2013-01-25 07:03:00,
2013-01-25 01:08:00,18.2,10.4,30.11,SW,222,2.9,4.6,71,0.00,CLR,,0.00,WeatherDisplay:10.37,2013-01-25 07:08:00,
2013-01-25 01:13:00,18.0,10.2,30.11,SW,222,2.5,4.6,71,0.00,CLR,,0.00,WeatherDisplay:10.37,2013-01-25 07:13:00,
2013-01-25 01:18:00,17.9,10.4,30.11,SW,221,5.2,5.8,72,0.00,CLR,,0.00,WeatherDisplay:10.37,2013-01-25 07:18:00,
2013-01-25 01:23:00,17.8,10.9,30.11,SW,222,0.2,2.3,74,0.00,CLR,,0.00,WeatherDisplay:10.37,2013-01-25 07:23:00,
2013-01-25 01:29:00,17.6,10.7,30.11,SW,222,1.5,3.5,74,0.00,CLR,,0.00,WeatherDisplay:10.37,2013-01-25 07:29:00,
2013-01-25 01:33:00,17.5,10.6,30.11,SW,222,2.4,2.4,74,0.00,CLR,,0.00,WeatherDisplay:10.37,2013-01-25 07:33:00,
2013-01-25 01:38:00,17.5,10.9,30.11,SW,222,0.3,1.1,75,0.00,CLR,,0.00,WeatherDisplay:10.37,2013-01-25 07:38:00,
2013-01-25 01:44:00,17.4,11.1,30.10,SW,221,2.9,3.5,76,0.00,CLR,,0.00,WeatherDisplay:10.37,2013-01-25 07:44:00,
2013-01-25 01:49:00,17.4,10.8,30.10,SW,221,3.9,4.6,75,0.00,CLR,,0.00,WeatherDisplay:10.37,2013-01-25 07:49:00,
2013-01-25 01:54:00,17.4,10.8,30.10,SW,222,3.7,4.6,75,0.00,CLR,,0.00,WeatherDisplay:10.37,2013-01-25 07:54:00,
2013-01-25 01:59:00,17.4,10.8,30.10,SW,221,2.8,3.5,75,0.00,CLR,,0.00,WeatherDisplay:10.37,2013-01-25 07:59:00,
2013-01-25 02:04:00,17.4,10.8,30.11,SW,221,3.3,4.6,75,0.00,CLR,,0.00,WeatherDisplay:10.37,2013-01-25 08:04:00,
2013-01-25 02:09:00,17.4,10.8,30.11,SW,222,4.5,4.6,75,0.00,CLR,,0.00,WeatherDisplay:10.37,2013-01-25 08:09:00,
2013-01-25 02:14:00,17.3,10.7,30.11,SW,222,3.7,5.8,75,0.00,CLR,,0.00,WeatherDisplay:10.37,2013-01-25 08:14:00,
2013-01-25 02:19:00,17.3,10.7,30.11,SW,222,3.5,6.9,75,0.00,CLR,,0.00,WeatherDisplay:10.37,2013-01-25 08:19:00,
2013-01-25 02:24:00,17.0,10.4,30.11,SW,222,3.5,5.8,75,0.00,CLR,,0.00,WeatherDisplay:10.37,2013-01-25 08:24:00,
2013-01-25 02:29:00,16.9,10.3,30.11,SW,222,4.1,5.8,75,0.00,CLR,,0.00,WeatherDisplay:10.37,2013-01-25 08:29:00,
2013-01-25 02:34:00,16.7,10.4,30.12,SW,223,2.5,4.6,76,0.00,CLR,,0.00,WeatherDisplay:10.37,2013-01-25 08:34:00,
2013-01-25 02:39:00,16.6,10.3,30.12,SW,227,6.4,6.9,76,0.00,CLR,,0.00,WeatherDisplay:10.37,2013-01-25 08:39:00,
2013-01-25 02:44:00,16.5,10.3,30.12,SW,236,4.6,5.8,76,0.00,CLR,,0.00,WeatherDisplay:10.37,2013-01-25 08:44:00,
2013-01-25 02:49:00,16.3,10.4,30.11,SW,236,4.6,6.9,77,0.00,CLR,,0.00,WeatherDisplay:10.37,2013-01-25 08:49:00,
2013-01-25 02:54:00,16.3,10.4,30.11,WSW,240,5.4,5.8,77,0.00,CLR,,0.00,WeatherDisplay:10.37,2013-01-25 08:54:00,
2013-01-25 02:59:00,16.2,10.3,30.11,WSW,240,5.3,6.9,77,0.00,CLR,,0.00,WeatherDisplay:10.37,2013-01-25 08:59:00,
2013-01-25 03:04:00,16.1,10.2,30.11,WSW,240,4.8,6.9,77,0.00,CLR,,0.00,WeatherDisplay:10.37,2013-01-25 09:04:00,
2013-01-25 03:09:00,16.0,10.3,30.11,WSW,240,4.6,5.8,78,0.00,CLR,,0.00,WeatherDisplay:10.37,2013-01-25 09:09:00,
2013-01-25 03:14:00,16.1,10.4,30.10,WSW,242,4.8,8.1,78,0.00,CLR,,0.00,WeatherDisplay:10.37,2013-01-25 09:14:00,
2013-01-25 03:19:00,16.0,10.3,30.10,WSW,242,3.9,4.6,78,0.00,CLR,,0.00,WeatherDisplay:10.37,2013-01-25 09:19:00,
2013-01-25 03:24:00,16.0,10.3,30.11,WSW,242,5.5,6.9,78,0.00,CLR,,0.00,WeatherDisplay:10.37,2013-01-25 09:24:00,
2013-01-25 03:29:00,15.8,10.4,30.10,WSW,242,6.3,8.1,79,0.00,CLR,,0.00,WeatherDisplay:10.37,2013-01-25 09:29:00,
2013-01-25 03:34:00,15.8,10.4,30.11,WSW,244,5.4,6.9,79,0.00,CLR,,0.00,WeatherDisplay:10.37,2013-01-25 09:34:00,
2013-01-25 03:39:00,15.7,10.3,30.11,WSW,244,6.1,8.1,79,0.00,CLR,,0.00,WeatherDisplay:10.37,2013-01-25 09:39:00,
2013-01-25 03:44:00,15.6,10.5,30.11,WSW,244,6.6,9.2,80,0.00,CLR,,0.00,WeatherDisplay:10.37,2013-01-25 09:44:00,
2013-01-25 03:49:00,15.6,10.5,30.11,WSW,246,6.2,8.1,80,0.00,CLR,,0.00,WeatherDisplay:10.37,2013-01-25 09:49:00,
2013-01-25 03:54:00,15.7,10.9,30.11,WSW,246,5.7,8.1,81,0.00,CLR,,0.00,WeatherDisplay:10.37,2013-01-25 09:54:00,
2013-01-25 03:59:00,15.8,11.0,30.11,WSW,247,5.3,6.5,81,0.00,CLR,,0.00,WeatherDisplay:10.37,2013-01-25 09:59:00,
2013-01-25 04:04:00,15.9,11.1,30.11,WSW,247,5.0,6.9,81,0.00,CLR,,0.00,WeatherDisplay:10.37,2013-01-25 10:04:00,
2013-01-25 04:09:00,16.0,11.2,30.11,WSW,247,6.3,8.1,81,0.00,CLR,,0.00,WeatherDisplay:10.37,2013-01-25 10:09:00,
2013-01-25 04:14:00,16.0,11.2,30.11,WSW,248,6.2,6.9,81,0.00,CLR,,0.00,WeatherDisplay:10.37,2013-01-25 10:14:00,
2013-01-25 04:19:00,16.0,11.5,30.11,WSW,248,5.7,8.1,82,0.00,CLR,,0.00,WeatherDisplay:10.37,2013-01-25 10:19:00,
2013-01-25 04:24:00,16.1,11.6,30.11,WSW,248,6.3,8.1,82,0.00,CLR,,0.00,WeatherDisplay:10.37,2013-01-25 10:24:00,
2013-01-25 04:29:00,16.1,11.6,30.11,WSW,248,5.5,8.1,82,0.00,CLR,,0.00,WeatherDisplay:10.37,2013-01-25 10:29:00,
2013-01-25 04:34:00,16.1,11.6,30.11,WSW,248,5.7,8.1,82,0.00,CLR,,0.00,WeatherDisplay:10.37,2013-01-25 10:34:00,
2013-01-25 04:39:00,16.2,11.9,30.11,WSW,248,5.1,5.8,83,0.00,CLR,,0.00,WeatherDisplay:10.37,2013-01-25 10:39:00,
2013-01-25 04:44:00,16.6,12.3,30.11,WSW,248,4.5,6.9,83,0.00,CLR,,0.00,WeatherDisplay:10.37,2013-01-25 10:44:00,
2013-01-25 04:49:00,16.7,12.4,30.11,WSW,248,4.7,6.9,83,0.00,CLR,,0.00,WeatherDisplay:10.37,2013-01-25 10:49:00,
2013-01-25 04:54:00,16.8,12.5,30.11,WSW,248,4.1,4.6,83,0.00,CLR,,0.00,WeatherDisplay:10.37,2013-01-25 10:54:00,
2013-01-25 04:59:00,16.8,12.5,30.11,WSW,248,5.1,5.8,83,0.00,CLR,,0.00,WeatherDisplay:10.37,2013-01-25 10:59:00,
2013-01-25 05:04:00,16.7,12.4,30.11,WSW,248,5.5,8.1,83,0.00,CLR,,0.00,WeatherDisplay:10.37,2013-01-25 11:04:00,
2013-01-25 05:09:00,16.9,12.6,30.11,WSW,248,4.5,5.8,83,0.00,CLR,,0.00,WeatherDisplay:10.37,2013-01-25 11:09:00,
2013-01-25 05:14:00,17.1,12.8,30.11,WSW,248,4.4,6.9,83,0.00,CLR,,0.00,WeatherDisplay:10.37,2013-01-25 11:14:00,
2013-01-25 05:19:00,17.0,12.7,30.11,WSW,248,3.0,4.6,83,0.00,CLR,,0.00,WeatherDisplay:10.37,2013-01-25 11:19:00,
2013-01-25 05:25:00,17.0,12.7,30.11,WSW,248,1.2,2.3,83,0.00,CLR,,0.00,WeatherDisplay:10.37,2013-01-25 11:25:00,
2013-01-25 05:29:00,17.0,13.0,30.11,WSW,248,2.2,3.5,84,0.00,CLR,,0.00,WeatherDisplay:10.37,2013-01-25 11:29:00,
2013-01-25 05:35:00,17.2,13.2,30.11,WSW,248,2.7,3.5,84,0.00,CLR,,0.00,WeatherDisplay:10.37,2013-01-25 11:35:00,
2013-01-25 05:40:00,17.4,13.4,30.11,WSW,248,2.3,3.5,84,0.00,CLR,,0.00,WeatherDisplay:10.37,2013-01-25 11:40:00,
2013-01-25 05:45:00,17.6,13.6,30.11,WSW,248,2.8,3.5,84,0.00,CLR,,0.00,WeatherDisplay:10.37,2013-01-25 11:45:00,
2013-01-25 05:50:00,17.8,13.8,30.11,WSW,248,2.5,4.6,84,0.00,CLR,,0.00,WeatherDisplay:10.37,2013-01-25 11:50:00,
2013-01-25 05:55:00,17.9,13.9,30.11,WSW,248,3.0,3.5,84,0.00,CLR,,0.00,WeatherDisplay:10.37,2013-01-25 11:55:00,
2013-01-25 06:00:00,18.0,14.0,30.11,WSW,248,3.5,5.8,84,0.00,CLR,,0.00,WeatherDisplay:10.37,2013-01-25 12:00:00,
2013-01-25 06:05:00,18.3,14.3,30.12,WSW,248,5.2,6.9,84,0.00,CLR,,0.00,WeatherDisplay:10.37,2013-01-25 12:05:00,
2013-01-25 06:10:00,18.7,14.7,30.12,WSW,248,3.0,4.6,84,0.00,CLR,,0.00,WeatherDisplay:10.37,2013-01-25 12:10:00,
2013-01-25 06:15:00,18.9,14.9,30.12,WSW,248,4.7,5.8,84,0.00,CLR,,0.00,WeatherDisplay:10.37,2013-01-25 12:15:00,
2013-01-25 06:20:00,19.4,15.4,30.12,WSW,248,6.8,8.1,84,0.00,CLR,,0.00,WeatherDisplay:10.37,2013-01-25 12:20:00,
2013-01-25 06:25:00,19.7,15.4,30.13,WSW,248,7.5,8.1,83,0.00,CLR,,0.00,WeatherDisplay:10.37,2013-01-25 12:25:00,
2013-01-25 06:30:00,19.5,15.2,30.13,WSW,248,6.5,8.6,83,0.00,CLR,,0.00,WeatherDisplay:10.37,2013-01-25 12:30:00,
2013-01-25 06:35:00,19.3,15.0,30.13,WSW,249,6.3,8.1,83,0.00,CLR,,0.00,WeatherDisplay:10.37,2013-01-25 12:35:00,
2013-01-25 06:40:00,19.1,14.8,30.13,WSW,249,7.4,9.2,83,0.00,CLR,,0.00,WeatherDisplay:10.37,2013-01-25 12:40:00,
2013-01-25 06:45:00,18.9,14.6,30.13,WSW,250,6.2,6.9,83,0.00,CLR,,0.00,WeatherDisplay:10.37,2013-01-25 12:45:00,
2013-01-25 06:50:00,18.6,14.6,30.13,WSW,251,7.7,9.2,84,0.00,CLR,,0.00,WeatherDisplay:10.37,2013-01-25 12:50:00,
2013-01-25 06:55:00,18.3,14.3,30.14,WSW,251,6.5,9.2,84,0.00,CLR,,0.00,WeatherDisplay:10.37,2013-01-25 12:55:00,
2013-01-25 07:00:00,18.4,14.6,30.14,WSW,252,6.9,8.1,85,0.00,CLR,,0.00,WeatherDisplay:10.37,2013-01-25 13:00:00,
2013-01-25 07:05:00,18.4,14.6,30.14,WSW,252,7.5,9.2,85,0.00,CLR,,0.00,WeatherDisplay:10.37,2013-01-25 13:05:00,
2013-01-25 07:10:00,18.8,15.0,30.14,WSW,250,6.2,9.2,85,0.00,CLR,,0.00,WeatherDisplay:10.37,2013-01-25 13:10:00,
2013-01-25 07:15:00,19.0,15.2,30.14,WSW,250,5.8,6.9,85,0.00,CLR,,0.00,WeatherDisplay:10.37,2013-01-25 13:15:00,
2013-01-25 07:20:00,19.1,15.3,30.14,WSW,251,5.8,6.9,85,0.00,CLR,,0.00,WeatherDisplay:10.37,2013-01-25 13:20:00,
2013-01-25 07:25:00,19.4,15.6,30.14,WSW,251,4.3,5.8,85,0.00,CLR,,0.00,WeatherDisplay:10.37,2013-01-25 13:25:00,
2013-01-25 07:30:00,19.6,16.1,30.14,WSW,251,5.3,6.9,86,0.00,CLR,,0.00,WeatherDisplay:10.37,2013-01-25 13:30:00,
2013-01-25 07:35:00,20.4,16.9,30.14,WSW,256,5.9,8.1,86,0.00,CLR,,0.00,WeatherDisplay:10.37,2013-01-25 13:35:00,
2013-01-25 07:40:00,21.4,17.6,30.14,West,262,5.9,6.9,85,0.00,CLR,,0.00,WeatherDisplay:10.37,2013-01-25 13:40:00,
2013-01-25 07:45:00,21.5,17.1,30.15,West,262,5.5,6.9,83,0.00,CLR,,0.00,WeatherDisplay:10.37,2013-01-25 13:45:00,
2013-01-25 07:50:00,21.1,16.7,30.15,West,262,3.6,5.4,83,0.00,CLR,,0.00,WeatherDisplay:10.37,2013-01-25 13:50:00,
2013-01-25 07:55:00,21.1,17.0,30.14,West,262,4.1,5.8,84,0.00,CLR,,0.00,WeatherDisplay:10.37,2013-01-25 13:55:00,
2013-01-25 08:00:00,21.6,17.8,30.14,West,263,4.3,6.5,85,0.00,CLR,,0.00,WeatherDisplay:10.37,2013-01-25 14:00:00,
2013-01-25 08:05:00,22.1,18.0,30.15,West,264,5.0,6.9,84,0.00,CLR,,0.00,WeatherDisplay:10.37,2013-01-25 14:05:00,
2013-01-25 08:10:00,22.0,17.6,30.15,WSW,257,7.2,9.2,83,0.00,CLR,,0.00,WeatherDisplay:10.37,2013-01-25 14:10:00,
2013-01-25 08:15:00,21.4,17.0,30.15,WSW,252,6.8,9.2,83,0.00,CLR,,0.00,WeatherDisplay:10.37,2013-01-25 14:15:00,
2013-01-25 08:20:00,21.3,17.2,30.15,West,267,4.6,5.8,84,0.00,CLR,,0.00,WeatherDisplay:10.37,2013-01-25 14:20:00,
2013-01-25 08:25:00,21.6,17.5,30.15,West,267,3.9,4.6,84,0.00,CLR,,0.00,WeatherDisplay:10.37,2013-01-25 14:25:00,
2013-01-25 08:30:00,21.7,17.3,30.15,West,267,3.8,5.8,83,0.00,CLR,,0.00,WeatherDisplay:10.37,2013-01-25 14:30:00,
2013-01-25 08:35:00,21.8,17.7,30.15,West,267,4.4,6.9,84,0.00,CLR,,0.00,WeatherDisplay:10.37,2013-01-25 14:35:00,
2013-01-25 08:40:00,22.0,17.9,30.16,West,267,4.3,5.8,84,0.00,CLR,,0.00,WeatherDisplay:10.37,2013-01-25 14:40:00,
2013-01-25 08:45:00,22.4,18.3,30.16,West,267,2.9,3.5,84,0.00,CLR,,0.00,WeatherDisplay:10.37,2013-01-25 14:45:00,
2013-01-25 08:50:00,22.8,18.4,30.16,West,267,3.9,4.6,83,0.00,CLR,,0.00,WeatherDisplay:10.37,2013-01-25 14:50:00,
2013-01-25 08:55:00,23.3,19.2,30.16,West,267,4.2,4.6,84,0.00,CLR,,0.00,WeatherDisplay:10.37,2013-01-25 14:55:00,
2013-01-25 09:00:00,24.0,19.6,30.16,West,267,3.8,5.8,83,0.00,CLR,,0.00,WeatherDisplay:10.37,2013-01-25 15:00:00,
2013-01-25 09:05:00,24.8,20.4,30.16,West,267,3.7,4.6,83,0.00,CLR,,0.00,WeatherDisplay:10.37,2013-01-25 15:05:00,
2013-01-25 09:10:00,25.5,20.5,30.17,West,267,3.9,6.9,81,0.00,CLR,,0.00,WeatherDisplay:10.37,2013-01-25 15:10:00,
2013-01-25 09:15:00,26.1,20.8,30.17,West,267,4.1,5.8,80,0.00,CLR,,0.00,WeatherDisplay:10.37,2013-01-25 15:15:00,
2013-01-25 09:20:00,26.8,21.2,30.17,West,267,4.2,5.8,79,0.00,CLR,,0.00,WeatherDisplay:10.37,2013-01-25 15:20:00,
2013-01-25 09:25:00,27.4,21.7,30.17,West,266,6.6,8.1,79,0.00,CLR,,0.00,WeatherDisplay:10.37,2013-01-25 15:25:00,
2013-01-25 09:30:00,28.0,22.0,30.18,WSW,252,8.7,9.2,78,0.00,CLR,,0.00,WeatherDisplay:10.37,2013-01-25 15:30:00,
2013-01-25 09:35:00,28.6,22.6,30.18,West,263,7.7,10.4,78,0.00,CLR,,0.00,WeatherDisplay:10.37,2013-01-25 15:35:00,
2013-01-25 09:40:00,29.3,23.3,30.18,WSW,253,6.2,8.1,78,0.00,CLR,,0.00,WeatherDisplay:10.37,2013-01-25 15:40:00,
2013-01-25 09:45:00,29.9,23.3,30.18,West,268,6.6,9.2,76,0.00,CLR,,0.00,WeatherDisplay:10.37,2013-01-25 15:45:00,
2013-01-25 09:50:00,30.6,23.6,30.19,West,274,9.7,11.5,75,0.00,CLR,,0.00,WeatherDisplay:10.37,2013-01-25 15:50:00,
2013-01-25 09:55:00,31.4,24.4,30.20,West,275,6.4,9.2,75,0.00,CLR,,0.00,WeatherDisplay:10.37,2013-01-25 15:55:00,
2013-01-25 10:00:00,32.3,24.9,30.20,West,275,4.8,6.9,74,0.00,CLR,,0.00,WeatherDisplay:10.37,2013-01-25 16:00:00,
2013-01-25 10:05:00,33.1,24.7,30.20,West,277,8.5,9.2,71,0.00,CLR,,0.00,WeatherDisplay:10.37,2013-01-25 16:05:00,
2013-01-25 10:10:00,33.8,25.0,30.21,WNW,283,8.4,11.5,70,0.00,CLR,,0.00,WeatherDisplay:10.37,2013-01-25 16:10:00,
2013-01-25 10:16:00,34.3,25.2,30.21,West,277,9.2,9.2,69,0.00,CLR,,0.00,WeatherDisplay:10.37,2013-01-25 16:16:00,
2013-01-25 10:21:00,34.9,25.4,30.21,West,267,7.7,10.4,68,0.00,CLR,,0.00,WeatherDisplay:10.37,2013-01-25 16:21:00,
2013-01-25 10:26:00,35.3,25.8,30.21,West,267,3.9,6.9,68,0.00,CLR,,0.00,WeatherDisplay:10.37,2013-01-25 16:26:00,
2013-01-25 10:31:00,35.8,25.9,30.21,West,269,2.1,5.8,67,0.00,CLR,,0.00,WeatherDisplay:10.37,2013-01-25 16:31:00,
2013-01-25 10:36:00,36.4,26.1,30.21,West,273,4.4,6.9,66,0.00,CLR,,0.00,WeatherDisplay:10.37,2013-01-25 16:36:00,
2013-01-25 10:41:00,37.1,26.4,30.20,West,275,3.2,8.1,65,0.00,CLR,,0.00,WeatherDisplay:10.37,2013-01-25 16:41:00,
2013-01-25 10:46:00,37.4,26.3,30.21,West,275,5.2,8.1,64,0.00,CLR,,0.00,WeatherDisplay:10.37,2013-01-25 16:46:00,
2013-01-25 10:51:00,37.5,26.4,30.21,West,275,7.1,8.1,64,0.00,CLR,,0.00,WeatherDisplay:10.37,2013-01-25 16:51:00,
2013-01-25 10:56:00,37.8,26.3,30.21,West,275,4.0,6.9,63,0.00,CLR,,0.00,WeatherDisplay:10.37,2013-01-25 16:56:00,
2013-01-25 11:01:00,38.4,26.9,30.21,West,275,1.7,1.7,63,0.00,CLR,,0.00,WeatherDisplay:10.37,2013-01-25 17:01:00,
2013-01-25 11:06:00,39.0,26.7,30.20,West,275,2.8,5.8,61,0.00,CLR,,0.00,WeatherDisplay:10.37,2013-01-25 17:06:00,
2013-01-25 11:11:00,39.5,27.2,30.21,West,275,2.1,3.5,61,0.00,CLR,,0.00,WeatherDisplay:10.37,2013-01-25 17:11:00,
2013-01-25 11:16:00,39.9,27.1,30.20,WNW,284,6.2,6.9,60,0.00,CLR,,0.00,WeatherDisplay:10.37,2013-01-25 17:16:00,
2013-01-25 11:21:00,40.2,27.4,30.20,WNW,301,3.5,5.8,60,0.00,CLR,,0.00,WeatherDisplay:10.37,2013-01-25 17:21:00,
2013-01-25 11:26:00,40.7,27.5,30.20,WNW,301,1.2,1.2,59,0.00,CLR,,0.00,WeatherDisplay:10.37,2013-01-25 17:26:00,
2013-01-25 11:31:00,41.6,27.5,30.20,WNW,301,7.3,7.3,57,0.00,CLR,,0.00,WeatherDisplay:10.37,2013-01-25 17:31:00,
2013-01-25 11:36:00,41.9,27.8,30.20,NW,317,1.3,5.3,57,0.00,CLR,,0.00,WeatherDisplay:10.37,2013-01-25 17:36:00,
2013-01-25 11:41:00,42.1,27.5,30.19,NNW,332,5.5,7.9,56,0.00,CLR,,0.00,WeatherDisplay:10.37,2013-01-25 17:41:00,
2013-01-25 11:46:00,42.0,27.4,30.19,NNW,342,1.6,3.5,56,0.00,CLR,,0.00,WeatherDisplay:10.37,2013-01-25 17:46:00,
2013-01-25 11:51:00,42.4,27.4,30.19,NNW,343,6.2,6.9,55,0.00,CLR,,0.00,WeatherDisplay:10.37,2013-01-25 17:51:00,
2013-01-25 11:56:00,42.6,28.0,30.19,NNW,343,1.3,5.8,56,0.00,CLR,,0.00,WeatherDisplay:10.37,2013-01-25 17:56:00,
2013-01-25 12:01:00,43.0,27.5,30.19,NNW,344,7.3,9.2,54,0.00,CLR,,0.00,WeatherDisplay:10.37,2013-01-25 18:01:00,
2013-01-25 12:06:00,43.6,28.0,30.19,NNW,344,5.7,6.9,54,0.00,CLR,,0.00,WeatherDisplay:10.37,2013-01-25 18:06:00,
2013-01-25 12:11:00,43.8,27.8,30.18,NNW,343,4.3,6.9,53,0.00,CLR,,0.00,WeatherDisplay:10.37,2013-01-25 18:11:00,
2013-01-25 12:16:00,44.2,27.7,30.18,NNW,343,0.9,2.3,52,0.00,CLR,,0.00,WeatherDisplay:10.37,2013-01-25 18:16:00,
2013-01-25 12:21:00,44.8,27.3,30.18,NNW,343,4.9,5.8,50,0.00,CLR,,0.00,WeatherDisplay:10.37,2013-01-25 18:21:00,
2013-01-25 12:26:00,45.2,27.2,30.18,NNW,343,3.5,8.1,49,0.00,CLR,,0.00,WeatherDisplay:10.37,2013-01-25 18:26:00,
2013-01-25 12:31:00,45.1,26.6,30.18,NW,320,4.7,5.8,48,0.00,CLR,,0.00,WeatherDisplay:10.37,2013-01-25 18:31:00,
2013-01-25 12:36:00,45.0,27.0,30.18,NW,320,6.9,8.1,49,0.00,CLR,,0.00,WeatherDisplay:10.37,2013-01-25 18:36:00,
2013-01-25 12:41:00,45.3,27.7,30.18,NW,320,4.4,4.4,50,0.00,CLR,,0.00,WeatherDisplay:10.37,2013-01-25 18:41:00,
2013-01-25 12:46:00,45.0,27.0,30.17,NW,319,3.2,5.8,49,0.00,CLR,,0.00,WeatherDisplay:10.37,2013-01-25 18:46:00,
2013-01-25 12:51:00,45.4,27.3,30.17,NW,319,5.3,5.8,49,0.00,CLR,,0.00,WeatherDisplay:10.37,2013-01-25 18:51:00,
2013-01-25 12:56:00,45.4,27.8,30.18,NW,317,7.3,8.1,50,0.00,CLR,,0.00,WeatherDisplay:10.37,2013-01-25 18:56:00,
2013-01-25 13:01:00,45.1,28.0,30.18,WNW,297,5.2,6.9,51,0.00,CLR,,0.00,WeatherDisplay:10.37,2013-01-25 19:01:00,
2013-01-25 13:06:00,45.2,27.6,30.17,West,261,6.4,8.1,50,0.00,CLR,,0.00,WeatherDisplay:10.37,2013-01-25 19:06:00,
2013-01-25 13:11:00,45.0,28.4,30.18,WSW,244,5.7,6.9,52,0.00,CLR,,0.00,WeatherDisplay:10.37,2013-01-25 19:11:00,
2013-01-25 13:16:00,44.1,28.0,30.18,SW,232,7.8,9.2,53,0.00,CLR,,0.00,WeatherDisplay:10.37,2013-01-25 19:16:00,
2013-01-25 13:21:00,44.0,28.0,30.17,SW,232,4.1,5.8,53,0.00,CLR,,0.00,WeatherDisplay:10.37,2013-01-25 19:21:00,
2013-01-25 13:26:00,44.7,28.6,30.17,SW,232,5.3,6.9,53,0.00,CLR,,0.00,WeatherDisplay:10.37,2013-01-25 19:26:00,
2013-01-25 13:31:00,44.5,28.0,30.16,SW,232,5.9,6.9,52,0.00,CLR,,0.00,WeatherDisplay:10.37,2013-01-25 19:31:00,
2013-01-25 13:36:00,44.5,28.0,30.16,SW,232,7.0,8.1,52,0.00,CLR,,0.00,WeatherDisplay:10.37,2013-01-25 19:36:00,
2013-01-25 13:41:00,44.8,28.2,30.16,SW,234,5.7,8.1,52,0.00,CLR,,0.00,WeatherDisplay:10.37,2013-01-25 19:41:00,
2013-01-25 13:46:00,45.2,29.1,30.17,SW,233,5.1,7.6,53,0.00,CLR,,0.00,WeatherDisplay:10.37,2013-01-25 19:46:00,
2013-01-25 13:51:00,45.0,28.9,30.16,SW,228,7.0,8.1,53,0.00,CLR,,0.00,WeatherDisplay:10.37,2013-01-25 19:51:00,
2013-01-25 13:56:00,45.1,29.0,30.16,SW,227,7.3,9.2,53,0.00,CLR,,0.00,WeatherDisplay:10.37,2013-01-25 19:56:00,
2013-01-25 14:01:00,45.0,28.9,30.16,SW,228,4.3,6.9,53,0.00,CLR,,0.00,WeatherDisplay:10.37,2013-01-25 20:01:00,
2013-01-25 14:06:00,45.2,29.1,30.16,SW,228,5.2,5.8,53,0.00,CLR,,0.00,WeatherDisplay:10.37,2013-01-25 20:06:00,
2013-01-25 14:11:00,45.0,28.9,30.16,WSW,239,6.0,6.9,53,0.00,CLR,,0.00,WeatherDisplay:10.37,2013-01-25 20:11:00,
2013-01-25 14:16:00,44.9,28.8,30.16,WSW,239,6.5,6.9,53,0.00,CLR,,0.00,WeatherDisplay:10.37,2013-01-25 20:16:00,
2013-01-25 14:21:00,44.9,28.8,30.16,WSW,239,4.5,6.9,53,0.00,CLR,,0.00,WeatherDisplay:10.37,2013-01-25 20:21:00,
2013-01-25 14:26:00,44.9,28.8,30.16,WSW,239,6.1,8.1,53,0.00,CLR,,0.00,WeatherDisplay:10.37,2013-01-25 20:26:00,
2013-01-25 14:31:00,45.0,28.9,30.15,WSW,239,4.6,4.6,53,0.00,CLR,,0.00,WeatherDisplay:10.37,2013-01-25 20:31:00,
2013-01-25 14:36:00,45.1,29.0,30.15,WSW,239,3.7,4.3,53,0.00,CLR,,0.00,WeatherDisplay:10.37,2013-01-25 20:36:00,
2013-01-25 14:41:00,45.4,29.3,30.15,WSW,239,4.9,5.8,53,0.00,CLR,,0.00,WeatherDisplay:10.37,2013-01-25 20:41:00,
2013-01-25 14:46:00,45.6,29.0,30.15,WSW,239,6.1,6.9,52,0.00,CLR,,0.00,WeatherDisplay:10.37,2013-01-25 20:46:00,
2013-01-25 14:51:00,45.5,29.3,30.15,WSW,239,3.1,4.6,53,0.00,CLR,,0.00,WeatherDisplay:10.37,2013-01-25 20:51:00,
2013-01-25 14:56:00,46.2,28.6,30.15,WSW,239,3.8,8.1,50,0.00,CLR,,0.00,WeatherDisplay:10.37,2013-01-25 20:56:00,
2013-01-25 15:01:00,46.3,28.7,30.15,WSW,239,5.4,5.8,50,0.00,CLR,,0.00,WeatherDisplay:10.37,2013-01-25 21:01:00,
2013-01-25 15:06:00,46.1,28.5,30.15,WSW,239,5.0,6.9,50,0.00,CLR,,0.00,WeatherDisplay:10.37,2013-01-25 21:06:00,
2013-01-25 15:11:00,45.9,28.8,30.15,WSW,244,7.1,9.2,51,0.00,CLR,,0.00,WeatherDisplay:10.37,2013-01-25 21:11:00,
2013-01-25 15:16:00,45.8,28.7,30.15,WSW,244,6.3,8.1,51,0.00,CLR,,0.00,WeatherDisplay:10.37,2013-01-25 21:16:00,
2013-01-25 15:21:00,45.7,29.1,30.15,WSW,244,6.0,6.9,52,0.00,CLR,,0.00,WeatherDisplay:10.37,2013-01-25 21:21:00,
2013-01-25 15:26:00,45.4,28.8,30.15,SW,232,5.4,9.2,52,0.00,CLR,,0.00,WeatherDisplay:10.37,2013-01-25 21:26:00,
2013-01-25 15:31:00,45.5,28.4,30.15,WSW,247,4.6,9.2,51,0.00,CLR,,0.00,WeatherDisplay:10.37,2013-01-25 21:31:00,
2013-01-25 15:36:00,45.4,29.3,30.15,WSW,248,5.1,8.1,53,0.00,CLR,,0.00,WeatherDisplay:10.37,2013-01-25 21:36:00,
2013-01-25 15:41:00,44.6,29.4,30.15,WSW,244,5.3,8.1,55,0.00,CLR,,0.00,WeatherDisplay:10.37,2013-01-25 21:41:00,
2013-01-25 15:46:00,44.6,29.4,30.15,WSW,244,5.0,5.8,55,0.00,CLR,,0.00,WeatherDisplay:10.37,2013-01-25 21:46:00,
2013-01-25 15:51:00,44.8,29.2,30.15,WSW,244,1.5,3.2,54,0.00,CLR,,0.00,WeatherDisplay:10.37,2013-01-25 21:51:00,
2013-01-25 15:56:00,45.0,28.9,30.14,WSW,244,4.7,4.7,53,0.00,CLR,,0.00,WeatherDisplay:10.37,2013-01-25 21:56:00,
2013-01-25 16:01:00,44.6,29.0,30.14,WSW,244,4.4,5.8,54,0.00,CLR,,0.00,WeatherDisplay:10.37,2013-01-25 22:01:00,
2013-01-25 16:06:00,44.4,29.2,30.15,WSW,244,4.6,5.8,55,0.00,CLR,,0.00,WeatherDisplay:10.37,2013-01-25 22:06:00,
2013-01-25 16:11:00,44.3,29.6,30.15,WSW,244,3.3,4.6,56,0.00,CLR,,0.00,WeatherDisplay:10.37,2013-01-25 22:11:00,
2013-01-25 16:16:00,44.5,29.3,30.14,WSW,244,4.8,6.9,55,0.00,CLR,,0.00,WeatherDisplay:10.37,2013-01-25 22:16:00,
2013-01-25 16:21:00,44.8,29.2,30.15,WSW,244,5.2,6.9,54,0.00,CLR,,0.00,WeatherDisplay:10.37,2013-01-25 22:21:00,
2013-01-25 16:27:00,44.9,29.2,30.15,WSW,244,5.1,5.8,54,0.00,CLR,,0.00,WeatherDisplay:10.37,2013-01-25 22:27:00,
2013-01-25 16:32:00,45.1,29.9,30.15,WSW,242,4.4,6.9,55,0.00,CLR,,0.00,WeatherDisplay:10.37,2013-01-25 22:32:00,
2013-01-25 16:37:00,45.1,29.9,30.15,WSW,239,5.9,8.1,55,0.00,CLR,,0.00,WeatherDisplay:10.37,2013-01-25 22:37:00,
2013-01-25 16:42:00,45.0,29.8,30.15,WSW,239,3.4,4.6,55,0.00,CLR,,0.00,WeatherDisplay:10.37,2013-01-25 22:42:00,
2013-01-25 16:47:00,44.8,30.0,30.15,WSW,239,4.5,4.6,56,0.00,CLR,,0.00,WeatherDisplay:10.37,2013-01-25 22:47:00,
2013-01-25 16:52:00,44.8,30.0,30.14,WSW,238,4.2,4.6,56,0.00,CLR,,0.00,WeatherDisplay:10.37,2013-01-25 22:52:00,
2013-01-25 16:57:00,44.7,30.0,30.14,WSW,238,3.6,4.6,56,0.00,CLR,,0.00,WeatherDisplay:10.37,2013-01-25 22:57:00,
2013-01-25 17:02:00,44.4,29.7,30.15,WSW,238,3.9,4.6,56,0.00,CLR,,0.00,WeatherDisplay:10.37,2013-01-25 23:02:00,
2013-01-25 17:07:00,44.2,29.9,30.14,WSW,238,3.9,4.6,57,0.00,CLR,,0.00,WeatherDisplay:10.37,2013-01-25 23:07:00,
2013-01-25 17:12:00,44.0,30.2,30.15,WSW,238,4.1,5.8,58,0.00,CLR,,0.00,WeatherDisplay:10.37,2013-01-25 23:12:00,
2013-01-25 17:17:00,43.6,29.8,30.15,WSW,238,4.1,5.8,58,0.00,CLR,,0.00,WeatherDisplay:10.37,2013-01-25 23:17:00,
2013-01-25 17:22:00,43.3,29.9,30.15,WSW,238,4.8,5.8,59,0.00,CLR,,0.00,WeatherDisplay:10.37,2013-01-25 23:22:00,
2013-01-25 17:27:00,42.8,29.9,30.15,WSW,238,3.5,4.6,60,0.00,CLR,,0.00,WeatherDisplay:10.37,2013-01-25 23:27:00,
2013-01-25 17:32:00,42.4,29.9,30.14,WSW,238,3.5,6.9,61,0.00,CLR,,0.00,WeatherDisplay:10.37,2013-01-25 23:32:00,
2013-01-25 17:37:00,42.1,29.6,30.14,WSW,238,3.1,4.6,61,0.00,CLR,,0.00,WeatherDisplay:10.37,2013-01-25 23:37:00,
2013-01-25 17:42:00,41.8,29.7,30.14,WSW,238,3.7,4.6,62,0.00,CLR,,0.00,WeatherDisplay:10.37,2013-01-25 23:42:00,
2013-01-25 17:47:00,41.5,29.4,30.14,WSW,238,4.1,5.8,62,0.00,CLR,,0.00,WeatherDisplay:10.37,2013-01-25 23:47:00,
2013-01-25 17:52:00,41.2,29.5,30.14,WSW,238,3.7,4.6,63,0.00,CLR,,0.00,WeatherDisplay:10.37,2013-01-25 23:52:00,
2013-01-25 17:57:00,41.2,29.5,30.14,WSW,238,4.4,4.6,63,0.00,CLR,,0.00,WeatherDisplay:10.37,2013-01-25 23:57:00,
2013-01-25 18:02:00,41.0,29.4,30.15,WSW,238,3.9,5.8,63,0.00,CLR,,0.00,WeatherDisplay:10.37,2013-01-26 00:02:00,
2013-01-25 18:07:00,40.6,29.0,30.15,WSW,238,3.6,5.8,63,0.00,CLR,,0.00,WeatherDisplay:10.37,2013-01-26 00:07:00,
2013-01-25 18:12:00,40.6,29.0,30.15,WSW,238,3.0,4.6,63,0.00,CLR,,0.00,WeatherDisplay:10.37,2013-01-26 00:12:00,
2013-01-25 18:17:00,40.5,28.9,30.15,WSW,238,2.9,3.5,63,0.00,CLR,,0.00,WeatherDisplay:10.37,2013-01-26 00:17:00,
2013-01-25 18:22:00,40.7,29.1,30.15,WSW,238,2.6,4.6,63,0.00,CLR,,0.00,WeatherDisplay:10.37,2013-01-26 00:22:00,
2013-01-25 18:27:00,40.6,29.0,30.15,WSW,238,2.6,3.5,63,0.00,CLR,,0.00,WeatherDisplay:10.37,2013-01-26 00:27:00,
2013-01-25 18:32:00,40.3,29.1,30.15,WSW,238,2.6,3.5,64,0.00,CLR,,0.00,WeatherDisplay:10.37,2013-01-26 00:32:00,
2013-01-25 18:37:00,40.1,28.9,30.15,WSW,238,2.0,3.5,64,0.00,CLR,,0.00,WeatherDisplay:10.37,2013-01-26 00:37:00,
2013-01-25 18:42:00,40.3,28.7,30.15,WSW,238,1.4,2.3,63,0.00,CLR,,0.00,WeatherDisplay:10.37,2013-01-26 00:42:00,
2013-01-25 18:47:00,40.3,28.7,30.15,WSW,238,1.3,2.3,63,0.00,CLR,,0.00,WeatherDisplay:10.37,2013-01-26 00:47:00,
2013-01-25 18:52:00,40.1,28.5,30.15,WSW,238,0.2,1.1,63,0.00,CLR,,0.00,WeatherDisplay:10.37,2013-01-26 00:52:00,
2013-01-25 18:57:00,40.1,28.5,30.15,WSW,238,0.1,1.1,63,0.00,CLR,,0.00,WeatherDisplay:10.37,2013-01-26 00:57:00,
2013-01-25 19:02:00,40.0,28.4,30.15,WSW,238,0.8,2.3,63,0.00,CLR,,0.00,WeatherDisplay:10.37,2013-01-26 01:02:00,
2013-01-25 19:07:00,39.7,28.5,30.16,WSW,238,1.1,2.3,64,0.00,CLR,,0.00,WeatherDisplay:10.37,2013-01-26 01:07:00,
2013-01-25 19:12:00,38.8,28.4,30.16,WSW,238,2.1,3.5,66,0.00,CLR,,0.00,WeatherDisplay:10.37,2013-01-26 01:12:00,
2013-01-25 19:17:00,38.3,28.3,30.16,WSW,238,3.1,4.6,67,0.00,CLR,,0.00,WeatherDisplay:10.37,2013-01-26 01:17:00,
2013-01-25 19:22:00,37.2,28.0,30.16,WSW,238,3.8,4.6,69,0.00,CLR,,0.00,WeatherDisplay:10.37,2013-01-26 01:22:00,
2013-01-25 19:27:00,36.4,27.9,30.16,WSW,238,3.3,4.6,71,0.00,CLR,,0.00,WeatherDisplay:10.37,2013-01-26 01:27:00,
2013-01-25 19:32:00,36.6,28.1,30.16,WSW,238,3.4,4.6,71,0.00,CLR,,0.00,WeatherDisplay:10.37,2013-01-26 01:32:00,
2013-01-25 19:37:00,37.0,28.1,30.16,WSW,238,2.0,2.3,70,0.00,CLR,,0.00,WeatherDisplay:10.37,2013-01-26 01:37:00,
2013-01-25 19:42:00,37.5,27.5,30.16,WSW,238,2.1,3.5,67,0.00,CLR,,0.00,WeatherDisplay:10.37,2013-01-26 01:42:00,
2013-01-25 19:47:00,37.7,27.4,30.16,WSW,238,2.2,2.3,66,0.00,CLR,,0.00,WeatherDisplay:10.37,2013-01-26 01:47:00,
2013-01-25 19:52:00,37.5,27.2,30.15,WSW,238,1.5,2.3,66,0.00,CLR,,0.00,WeatherDisplay:10.37,2013-01-26 01:52:00,
2013-01-25 19:57:00,37.6,27.3,30.15,WSW,238,0.0,0.0,66,0.00,CLR,,0.00,WeatherDisplay:10.37,2013-01-26 01:57:00,
2013-01-25 20:02:00,37.4,27.1,30.15,WSW,238,0.3,1.1,66,0.00,CLR,,0.00,WeatherDisplay:10.37,2013-01-26 02:02:00,
2013-01-25 20:07:00,37.0,27.1,30.16,WSW,238,0.0,0.0,67,0.00,CLR,,0.00,WeatherDisplay:10.37,2013-01-26 02:07:00,
2013-01-25 20:12:00,36.8,26.9,30.16,WSW,238,0.0,0.0,67,0.00,CLR,,0.00,WeatherDisplay:10.37,2013-01-26 02:12:00,
2013-01-25 20:17:00,36.7,26.8,30.16,WSW,238,0.0,0.0,67,0.00,CLR,,0.00,WeatherDisplay:10.37,2013-01-26 02:17:00,
2013-01-25 20:22:00,36.2,27.0,30.15,WSW,238,1.3,2.3,69,0.00,CLR,,0.00,WeatherDisplay:10.37,2013-01-26 02:22:00,
2013-01-25 20:27:00,35.7,26.5,30.15,WSW,238,0.5,1.1,69,0.00,CLR,,0.00,WeatherDisplay:10.37,2013-01-26 02:27:00,
2013-01-25 20:32:00,35.2,26.7,30.15,WSW,238,0.1,1.1,71,0.00,CLR,,0.00,WeatherDisplay:10.37,2013-01-26 02:32:00,
2013-01-25 20:37:00,35.0,26.5,30.15,WSW,238,0.0,0.0,71,0.00,CLR,,0.00,WeatherDisplay:10.37,2013-01-26 02:37:00,
2013-01-25 20:42:00,35.0,26.5,30.14,WSW,238,0.0,0.0,71,0.00,CLR,,0.00,WeatherDisplay:10.37,2013-01-26 02:42:00,
2013-01-25 20:47:00,34.7,26.3,30.15,WSW,238,0.1,1.1,71,0.00,CLR,,0.00,WeatherDisplay:10.37,2013-01-26 02:47:00,
2013-01-25 20:52:00,33.4,25.3,30.15,WSW,238,2.0,2.3,72,0.00,CLR,,0.00,WeatherDisplay:10.37,2013-01-26 02:52:00,
2013-01-25 20:57:00,32.6,25.6,30.14,WSW,238,0.0,1.1,75,0.00,CLR,,0.00,WeatherDisplay:10.37,2013-01-26 02:57:00,
2013-01-25 21:02:00,32.4,25.7,30.14,WSW,238,0.0,0.0,76,0.00,CLR,,0.00,WeatherDisplay:10.37,2013-01-26 03:02:00,
2013-01-25 21:07:00,32.3,25.6,30.15,WSW,238,0.0,0.0,76,0.00,CLR,,0.00,WeatherDisplay:10.37,2013-01-26 03:07:00,
2013-01-25 21:12:00,32.5,25.8,30.15,WSW,238,0.2,1.1,76,0.00,CLR,,0.00,WeatherDisplay:10.37,2013-01-26 03:12:00,
2013-01-25 21:17:00,32.8,25.7,30.14,WSW,238,0.0,0.0,75,0.00,CLR,,0.00,WeatherDisplay:10.37,2013-01-26 03:17:00,
2013-01-25 21:22:00,32.8,25.7,30.14,WSW,238,0.0,0.0,75,0.00,CLR,,0.00,WeatherDisplay:10.37,2013-01-26 03:22:00,
2013-01-25 21:27:00,33.3,25.9,30.14,WSW,238,0.0,0.0,74,0.00,CLR,,0.00,WeatherDisplay:10.37,2013-01-26 03:27:00,
2013-01-25 21:32:00,33.9,25.8,30.14,WSW,238,0.0,0.0,72,0.00,CLR,,0.00,WeatherDisplay:10.37,2013-01-26 03:32:00,
2013-01-25 21:37:00,34.3,25.9,30.14,WSW,238,0.0,0.0,71,0.00,CLR,,0.00,WeatherDisplay:10.37,2013-01-26 03:37:00,
2013-01-25 21:42:00,34.4,26.0,30.14,WSW,238,0.0,0.0,71,0.00,CLR,,0.00,WeatherDisplay:10.37,2013-01-26 03:42:00,
2013-01-25 21:47:00,34.5,26.1,30.14,WSW,238,0.0,0.0,71,0.00,CLR,,0.00,WeatherDisplay:10.37,2013-01-26 03:47:00,
2013-01-25 21:52:00,34.3,25.9,30.15,WSW,238,0.5,1.1,71,0.00,CLR,,0.00,WeatherDisplay:10.37,2013-01-26 03:52:00,
2013-01-25 21:57:00,34.0,25.6,30.15,WSW,238,2.2,3.2,71,0.00,CLR,,0.00,WeatherDisplay:10.37,2013-01-26 03:57:00,
2013-01-25 22:02:00,33.3,25.2,30.15,WSW,238,0.1,1.1,72,0.00,CLR,,0.00,WeatherDisplay:10.37,2013-01-26 04:02:00,
2013-01-25 22:07:00,32.6,24.9,30.15,WSW,238,0.1,1.1,73,0.00,CLR,,0.00,WeatherDisplay:10.37,2013-01-26 04:07:00,
2013-01-25 22:12:00,32.3,25.3,30.15,WSW,238,0.9,2.3,75,0.00,CLR,,0.00,WeatherDisplay:10.37,2013-01-26 04:12:00,
2013-01-25 22:17:00,32.4,25.4,30.15,WSW,238,0.4,1.1,75,0.00,CLR,,0.00,WeatherDisplay:10.37,2013-01-26 04:17:00,
2013-01-25 22:22:00,32.7,25.3,30.15,WSW,238,1.5,3.5,74,0.00,CLR,,0.00,WeatherDisplay:10.37,2013-01-26 04:22:00,
2013-01-25 22:27:00,33.0,25.6,30.15,WSW,238,1.6,3.2,74,0.00,CLR,,0.00,WeatherDisplay:10.37,2013-01-26 04:27:00,
2013-01-25 22:33:00,33.2,25.5,30.15,WSW,238,0.0,1.1,73,0.00,CLR,,0.00,WeatherDisplay:10.37,2013-01-26 04:33:00,
2013-01-25 22:38:00,33.1,25.1,30.15,WSW,238,0.4,1.1,72,0.00,CLR,,0.00,WeatherDisplay:10.37,2013-01-26 04:38:00,
2013-01-25 22:43:00,32.8,25.1,30.15,WSW,238,0.4,1.1,73,0.00,CLR,,0.00,WeatherDisplay:10.37,2013-01-26 04:43:00,
2013-01-25 22:48:00,32.5,25.1,30.15,WSW,238,0.0,0.0,74,0.00,CLR,,0.00,WeatherDisplay:10.37,2013-01-26 04:48:00,
2013-01-25 22:53:00,32.4,25.0,30.15,WSW,238,0.1,1.1,74,0.00,CLR,,0.00,WeatherDisplay:10.37,2013-01-26 04:53:00,
2013-01-25 22:58:00,32.5,25.1,30.15,WSW,238,0.8,2.3,74,0.00,CLR,,0.00,WeatherDisplay:10.37,2013-01-26 04:58:00,
2013-01-25 23:00:00,32.5,25.1,30.15,WSW,238,0.6,1.1,74,0.00,CLR,,0.00,WeatherDisplay:10.37,2013-01-26 05:00:00,
2013-01-25 23:01:00,32.6,25.2,30.15,WSW,238,0.1,1.1,74,0.00,CLR,,0.00,WeatherDisplay:10.37,2013-01-26 05:01:00,
2013-01-25 23:06:00,32.6,25.2,30.16,WSW,238,0.0,0.0,74,0.00,CLR,,0.00,WeatherDisplay:10.37,2013-01-26 05:06:00,
2013-01-25 23:11:00,32.6,25.2,30.16,WSW,238,0.5,1.1,74,0.00,CLR,,0.00,WeatherDisplay:10.37,2013-01-26 05:11:00,
2013-01-25 23:16:00,32.6,24.9,30.15,WSW,238,0.0,0.0,73,0.00,CLR,,0.00,WeatherDisplay:10.37,2013-01-26 05:16:00,
2013-01-25 23:21:00,32.3,24.9,30.16,WSW,238,0.1,0.0,74,0.00,CLR,,0.00,WeatherDisplay:10.37,2013-01-26 05:21:00,
2013-01-25 23:26:00,32.0,24.6,30.16,WSW,238,0.2,1.1,74,0.00,CLR,,0.00,WeatherDisplay:10.37,2013-01-26 05:26:00,
2013-01-25 23:31:00,31.7,24.4,30.16,WSW,238,0.0,1.1,74,0.00,CLR,,0.00,WeatherDisplay:10.37,2013-01-26 05:31:00,
2013-01-25 23:36:00,31.4,24.4,30.16,WSW,238,0.0,0.0,75,0.00,CLR,,0.00,WeatherDisplay:10.37,2013-01-26 05:36:00,
2013-01-25 23:41:00,31.1,24.4,30.15,WSW,238,0.4,1.1,76,0.00,CLR,,0.00,WeatherDisplay:10.37,2013-01-26 05:41:00,
2013-01-25 23:46:00,31.1,24.4,30.15,WSW,238,0.0,1.1,76,0.00,CLR,,0.00,WeatherDisplay:10.37,2013-01-26 05:46:00,
2013-01-25 23:51:00,31.0,24.3,30.15,WSW,238,1.1,1.1,76,0.00,CLR,,0.00,WeatherDisplay:10.37,2013-01-26 05:51:00,
2013-01-25 23:56:00,31.0,24.3,30.15,WSW,238,1.1,1.1,76,0.00,CLR,,0.00,WeatherDisplay:10.37,2013-01-26 05:56:00,